sensor_id;sensor_type;location;lat;lon;timestamp;P1;durP1;ratioP1;P2;durP2;ratioP2
24813;SDS011;12904;50.088;11.414;2023-09-19T00:01:32;3.30;;;2.25;;
24813;SDS011;12904;50.088;11.414;2023-09-19T00:03:58;3.78;;;2.63;;
24813;SDS011;12904;50.088;11.414;2023-09-19T00:06:24;3.85;;;2.50;;
24813;SDS011;12904;50.088;11.414;2023-09-19T00:08:51;5.40;;;2.65;;
24813;SDS011;12904;50.088;11.414;2023-09-19T00:11:18;4.95;;;2.38;;
24813;SDS011;12904;50.088;11.414;2023-09-19T00:13:43;4.30;;;2.53;;
24813;SDS011;12904;50.088;11.414;2023-09-19T00:16:14;6.45;;;2.65;;
24813;SDS011;12904;50.088;11.414;2023-09-19T00:18:40;3.15;;;2.65;;
24813;SDS011;12904;50.088;11.414;2023-09-19T00:21:07;3.00;;;2.55;;
24813;SDS011;12904;50.088;11.414;2023-09-19T00:23:33;5.43;;;2.40;;
24813;SDS011;12904;50.088;11.414;2023-09-19T00:25:59;3.42;;;2.22;;
24813;SDS011;12904;50.088;11.414;2023-09-19T00:28:25;3.60;;;2.58;;
24813;SDS011;12904;50.088;11.414;2023-09-19T00:30:51;2.75;;;2.42;;
24813;SDS011;12904;50.088;11.414;2023-09-19T00:33:17;4.70;;;2.75;;
24813;SDS011;12904;50.088;11.414;2023-09-19T00:35:50;4.80;;;2.75;;
24813;SDS011;12904;50.088;11.414;2023-09-19T00:38:16;6.28;;;2.75;;
24813;SDS011;12904;50.088;11.414;2023-09-19T00:40:46;4.43;;;2.55;;
24813;SDS011;12904;50.088;11.414;2023-09-19T00:43:12;5.15;;;2.97;;
24813;SDS011;12904;50.088;11.414;2023-09-19T00:45:38;4.60;;;2.97;;
24813;SDS011;12904;50.088;11.414;2023-09-19T00:48:07;11.68;;;3.30;;
24813;SDS011;12904;50.088;11.414;2023-09-19T00:50:34;3.47;;;2.83;;
24813;SDS011;12904;50.088;11.414;2023-09-19T00:53:01;6.55;;;3.10;;
24813;SDS011;12904;50.088;11.414;2023-09-19T00:55:32;3.55;;;2.80;;
24813;SDS011;12904;50.088;11.414;2023-09-19T00:57:59;3.13;;;2.83;;
24813;SDS011;12904;50.088;11.414;2023-09-19T01:00:25;4.35;;;3.05;;
24813;SDS011;12904;50.088;11.414;2023-09-19T01:02:51;3.58;;;2.22;;
24813;SDS011;12904;50.088;11.414;2023-09-19T01:05:17;3.67;;;2.28;;
24813;SDS011;12904;50.088;11.414;2023-09-19T01:07:43;4.53;;;2.80;;
24813;SDS011;12904;50.088;11.414;2023-09-19T01:10:13;7.43;;;2.92;;
24813;SDS011;12904;50.088;11.414;2023-09-19T01:12:49;4.10;;;3.00;;
24813;SDS011;12904;50.088;11.414;2023-09-19T01:32:05;3.00;;;2.70;;
24813;SDS011;12904;50.088;11.414;2023-09-19T01:34:44;5.97;;;3.47;;
24813;SDS011;12904;50.088;11.414;2023-09-19T01:37:17;3.83;;;2.53;;
24813;SDS011;12904;50.088;11.414;2023-09-19T01:39:48;6.18;;;3.20;;
24813;SDS011;12904;50.088;11.414;2023-09-19T01:48:12;3.53;;;3.22;;
24813;SDS011;12904;50.088;11.414;2023-09-19T01:53:25;3.75;;;2.88;;
24813;SDS011;12904;50.088;11.414;2023-09-19T01:55:56;4.57;;;2.78;;
24813;SDS011;12904;50.088;11.414;2023-09-19T01:58:42;3.83;;;3.20;;
24813;SDS011;12904;50.088;11.414;2023-09-19T02:01:15;5.68;;;3.25;;
24813;SDS011;12904;50.088;11.414;2023-09-19T02:03:43;3.03;;;2.60;;
24813;SDS011;12904;50.088;11.414;2023-09-19T02:06:14;3.90;;;2.63;;
24813;SDS011;12904;50.088;11.414;2023-09-19T02:08:40;2.92;;;2.63;;
24813;SDS011;12904;50.088;11.414;2023-09-19T02:11:06;5.55;;;3.08;;
24813;SDS011;12904;50.088;11.414;2023-09-19T02:13:32;4.65;;;3.15;;
24813;SDS011;12904;50.088;11.414;2023-09-19T02:15:57;3.35;;;2.80;;
24813;SDS011;12904;50.088;11.414;2023-09-19T02:18:24;3.60;;;3.10;;
24813;SDS011;12904;50.088;11.414;2023-09-19T02:20:53;3.88;;;2.92;;
24813;SDS011;12904;50.088;11.414;2023-09-19T02:23:19;4.30;;;3.35;;
24813;SDS011;12904;50.088;11.414;2023-09-19T02:25:54;8.32;;;3.60;;
24813;SDS011;12904;50.088;11.414;2023-09-19T02:28:22;3.65;;;3.35;;
24813;SDS011;12904;50.088;11.414;2023-09-19T02:30:48;3.00;;;2.55;;
24813;SDS011;12904;50.088;11.414;2023-09-19T02:33:15;2.22;;;2.03;;
24813;SDS011;12904;50.088;11.414;2023-09-19T02:35:42;3.72;;;2.30;;
24813;SDS011;12904;50.088;11.414;2023-09-19T02:38:07;2.13;;;1.92;;
24813;SDS011;12904;50.088;11.414;2023-09-19T02:40:36;3.42;;;2.03;;
24813;SDS011;12904;50.088;11.414;2023-09-19T02:43:02;3.92;;;1.90;;
24813;SDS011;12904;50.088;11.414;2023-09-19T02:45:28;11.23;;;2.80;;
24813;SDS011;12904;50.088;11.414;2023-09-19T02:47:55;2.85;;;2.42;;
24813;SDS011;12904;50.088;11.414;2023-09-19T02:50:22;2.58;;;2.38;;
24813;SDS011;12904;50.088;11.414;2023-09-19T02:52:48;2.65;;;2.42;;
24813;SDS011;12904;50.088;11.414;2023-09-19T02:55:14;3.10;;;2.80;;
24813;SDS011;12904;50.088;11.414;2023-09-19T02:57:45;6.78;;;2.92;;
24813;SDS011;12904;50.088;11.414;2023-09-19T03:00:19;4.80;;;2.40;;
24813;SDS011;12904;50.088;11.414;2023-09-19T03:02:49;3.63;;;2.50;;
24813;SDS011;12904;50.088;11.414;2023-09-19T03:05:15;5.45;;;2.97;;
24813;SDS011;12904;50.088;11.414;2023-09-19T03:07:41;4.05;;;2.67;;
24813;SDS011;12904;50.088;11.414;2023-09-19T03:10:08;6.32;;;2.10;;
24813;SDS011;12904;50.088;11.414;2023-09-19T03:12:34;2.33;;;2.13;;
24813;SDS011;12904;50.088;11.414;2023-09-19T03:15:00;4.03;;;2.00;;
24813;SDS011;12904;50.088;11.414;2023-09-19T03:17:26;2.17;;;1.85;;
24813;SDS011;12904;50.088;11.414;2023-09-19T03:19:52;2.65;;;2.10;;
24813;SDS011;12904;50.088;11.414;2023-09-19T03:22:19;5.43;;;2.35;;
24813;SDS011;12904;50.088;11.414;2023-09-19T03:24:44;2.33;;;2.03;;
24813;SDS011;12904;50.088;11.414;2023-09-19T03:27:11;2.63;;;1.95;;
24813;SDS011;12904;50.088;11.414;2023-09-19T03:29:41;2.20;;;2.00;;
24813;SDS011;12904;50.088;11.414;2023-09-19T03:32:07;2.80;;;2.60;;
24813;SDS011;12904;50.088;11.414;2023-09-19T03:34:36;2.83;;;2.28;;
24813;SDS011;12904;50.088;11.414;2023-09-19T03:37:07;4.82;;;2.20;;
24813;SDS011;12904;50.088;11.414;2023-09-19T03:39:33;3.33;;;2.00;;
24813;SDS011;12904;50.088;11.414;2023-09-19T03:41:59;2.20;;;1.80;;
24813;SDS011;12904;50.088;11.414;2023-09-19T03:44:25;3.92;;;1.92;;
24813;SDS011;12904;50.088;11.414;2023-09-19T03:46:51;2.05;;;1.80;;
24813;SDS011;12904;50.088;11.414;2023-09-19T03:49:16;3.47;;;2.03;;
24813;SDS011;12904;50.088;11.414;2023-09-19T03:51:42;3.60;;;1.65;;
24813;SDS011;12904;50.088;11.414;2023-09-19T03:54:08;2.85;;;2.17;;
24813;SDS011;12904;50.088;11.414;2023-09-19T03:56:34;4.20;;;1.90;;
24813;SDS011;12904;50.088;11.414;2023-09-19T03:58:59;3.55;;;2.00;;
24813;SDS011;12904;50.088;11.414;2023-09-19T04:01:25;2.50;;;2.10;;
24813;SDS011;12904;50.088;11.414;2023-09-19T04:03:52;2.20;;;2.00;;
24813;SDS011;12904;50.088;11.414;2023-09-19T04:06:18;3.42;;;3.13;;
24813;SDS011;12904;50.088;11.414;2023-09-19T04:08:44;3.78;;;2.67;;
24813;SDS011;12904;50.088;11.414;2023-09-19T04:11:12;3.60;;;3.30;;
24813;SDS011;12904;50.088;11.414;2023-09-19T04:13:37;4.50;;;2.47;;
24813;SDS011;12904;50.088;11.414;2023-09-19T04:16:03;4.85;;;2.67;;
24813;SDS011;12904;50.088;11.414;2023-09-19T04:18:29;4.50;;;2.70;;
24813;SDS011;12904;50.088;11.414;2023-09-19T04:21:02;3.15;;;2.50;;
24813;SDS011;12904;50.088;11.414;2023-09-19T04:23:29;3.30;;;2.70;;
24813;SDS011;12904;50.088;11.414;2023-09-19T04:25:55;2.95;;;2.75;;
24813;SDS011;12904;50.088;11.414;2023-09-19T04:28:22;4.63;;;2.30;;
24813;SDS011;12904;50.088;11.414;2023-09-19T04:30:48;3.78;;;2.38;;
24813;SDS011;12904;50.088;11.414;2023-09-19T04:33:13;2.17;;;1.88;;
24813;SDS011;12904;50.088;11.414;2023-09-19T04:35:39;2.25;;;2.00;;
24813;SDS011;12904;50.088;11.414;2023-09-19T04:38:07;4.68;;;2.58;;
24813;SDS011;12904;50.088;11.414;2023-09-19T04:40:33;2.40;;;1.98;;
24813;SDS011;12904;50.088;11.414;2023-09-19T04:42:59;5.40;;;2.00;;
24813;SDS011;12904;50.088;11.414;2023-09-19T04:45:25;2.47;;;2.28;;
24813;SDS011;12904;50.088;11.414;2023-09-19T04:47:52;2.40;;;2.20;;
24813;SDS011;12904;50.088;11.414;2023-09-19T04:50:18;2.85;;;2.40;;
24813;SDS011;12904;50.088;11.414;2023-09-19T04:52:46;3.72;;;2.10;;
24813;SDS011;12904;50.088;11.414;2023-09-19T04:55:16;4.05;;;2.50;;
24813;SDS011;12904;50.088;11.414;2023-09-19T04:57:47;2.83;;;1.95;;
24813;SDS011;12904;50.088;11.414;2023-09-19T05:00:14;2.65;;;2.17;;
24813;SDS011;12904;50.088;11.414;2023-09-19T05:02:42;2.67;;;2.47;;
24813;SDS011;12904;50.088;11.414;2023-09-19T05:05:09;5.18;;;2.30;;
24813;SDS011;12904;50.088;11.414;2023-09-19T05:07:41;2.22;;;2.00;;
24813;SDS011;12904;50.088;11.414;2023-09-19T05:10:07;2.42;;;2.15;;
24813;SDS011;12904;50.088;11.414;2023-09-19T05:12:34;4.95;;;2.00;;
24813;SDS011;12904;50.088;11.414;2023-09-19T05:15:01;2.33;;;1.90;;
24813;SDS011;12904;50.088;11.414;2023-09-19T05:17:28;2.83;;;2.00;;
24813;SDS011;12904;50.088;11.414;2023-09-19T05:19:53;2.40;;;2.20;;
24813;SDS011;12904;50.088;11.414;2023-09-19T05:22:19;4.18;;;2.60;;
24813;SDS011;12904;50.088;11.414;2023-09-19T05:24:45;3.25;;;2.30;;
24813;SDS011;12904;50.088;11.414;2023-09-19T05:27:16;3.92;;;2.30;;
24813;SDS011;12904;50.088;11.414;2023-09-19T05:29:42;2.92;;;2.10;;
24813;SDS011;12904;50.088;11.414;2023-09-19T05:32:09;4.38;;;2.40;;
24813;SDS011;12904;50.088;11.414;2023-09-19T05:34:35;2.40;;;2.20;;
24813;SDS011;12904;50.088;11.414;2023-09-19T05:37:01;2.55;;;2.17;;
24813;SDS011;12904;50.088;11.414;2023-09-19T05:39:28;2.95;;;1.95;;
24813;SDS011;12904;50.088;11.414;2023-09-19T05:41:53;4.45;;;2.20;;
24813;SDS011;12904;50.088;11.414;2023-09-19T05:44:20;2.80;;;1.88;;
24813;SDS011;12904;50.088;11.414;2023-09-19T05:46:45;2.22;;;1.80;;
24813;SDS011;12904;50.088;11.414;2023-09-19T05:49:13;2.30;;;1.80;;
24813;SDS011;12904;50.088;11.414;2023-09-19T05:51:39;1.60;;;1.48;;
24813;SDS011;12904;50.088;11.414;2023-09-19T05:54:05;1.90;;;1.60;;
24813;SDS011;12904;50.088;11.414;2023-09-19T05:56:30;2.20;;;1.92;;
24813;SDS011;12904;50.088;11.414;2023-09-19T05:58:56;3.70;;;2.10;;
24813;SDS011;12904;50.088;11.414;2023-09-19T06:01:22;2.22;;;1.40;;
24813;SDS011;12904;50.088;11.414;2023-09-19T06:03:47;3.00;;;2.00;;
24813;SDS011;12904;50.088;11.414;2023-09-19T06:06:13;1.67;;;1.52;;
24813;SDS011;12904;50.088;11.414;2023-09-19T06:08:39;1.73;;;1.50;;
24813;SDS011;12904;50.088;11.414;2023-09-19T06:11:05;2.10;;;1.45;;
24813;SDS011;12904;50.088;11.414;2023-09-19T06:13:32;1.40;;;1.30;;
24813;SDS011;12904;50.088;11.414;2023-09-19T06:15:58;1.60;;;1.50;;
24813;SDS011;12904;50.088;11.414;2023-09-19T06:18:29;1.95;;;1.85;;
24813;SDS011;12904;50.088;11.414;2023-09-19T06:20:58;2.22;;;1.58;;
24813;SDS011;12904;50.088;11.414;2023-09-19T06:23:24;2.28;;;1.70;;
24813;SDS011;12904;50.088;11.414;2023-09-19T06:25:51;2.90;;;1.80;;
24813;SDS011;12904;50.088;11.414;2023-09-19T06:28:18;1.60;;;1.40;;
24813;SDS011;12904;50.088;11.414;2023-09-19T06:30:48;1.80;;;1.45;;
24813;SDS011;12904;50.088;11.414;2023-09-19T06:33:14;2.10;;;1.15;;
24813;SDS011;12904;50.088;11.414;2023-09-19T06:35:40;2.60;;;1.65;;
24813;SDS011;12904;50.088;11.414;2023-09-19T06:38:07;1.05;;;1.05;;
24813;SDS011;12904;50.088;11.414;2023-09-19T06:40:33;2.08;;;1.25;;
24813;SDS011;12904;50.088;11.414;2023-09-19T06:42:59;2.67;;;1.10;;
24813;SDS011;12904;50.088;11.414;2023-09-19T06:45:27;1.95;;;1.20;;
24813;SDS011;12904;50.088;11.414;2023-09-19T06:47:53;2.10;;;1.13;;
24813;SDS011;12904;50.088;11.414;2023-09-19T06:50:22;2.35;;;0.90;;
24813;SDS011;12904;50.088;11.414;2023-09-19T06:52:49;1.90;;;1.10;;
24813;SDS011;12904;50.088;11.414;2023-09-19T06:55:17;1.95;;;1.20;;
24813;SDS011;12904;50.088;11.414;2023-09-19T06:57:44;1.25;;;1.10;;
24813;SDS011;12904;50.088;11.414;2023-09-19T07:00:11;1.33;;;1.00;;
24813;SDS011;12904;50.088;11.414;2023-09-19T07:02:43;2.83;;;1.00;;
24813;SDS011;12904;50.088;11.414;2023-09-19T07:05:09;1.52;;;0.80;;
24813;SDS011;12904;50.088;11.414;2023-09-19T07:07:35;0.80;;;0.80;;
24813;SDS011;12904;50.088;11.414;2023-09-19T07:10:01;3.75;;;1.08;;
24813;SDS011;12904;50.088;11.414;2023-09-19T07:12:30;2.15;;;1.15;;
24813;SDS011;12904;50.088;11.414;2023-09-19T07:14:57;1.05;;;0.95;;
24813;SDS011;12904;50.088;11.414;2023-09-19T07:17:23;4.72;;;0.90;;
24813;SDS011;12904;50.088;11.414;2023-09-19T07:19:49;0.95;;;0.82;;
24813;SDS011;12904;50.088;11.414;2023-09-19T07:22:15;1.90;;;0.90;;
24813;SDS011;12904;50.088;11.414;2023-09-19T07:24:41;1.63;;;1.27;;
24813;SDS011;12904;50.088;11.414;2023-09-19T07:27:07;0.85;;;0.77;;
24813;SDS011;12904;50.088;11.414;2023-09-19T07:29:33;1.48;;;1.00;;
24813;SDS011;12904;50.088;11.414;2023-09-19T07:31:59;2.95;;;0.70;;
24813;SDS011;12904;50.088;11.414;2023-09-19T07:34:25;1.30;;;1.00;;
24813;SDS011;12904;50.088;11.414;2023-09-19T07:36:51;1.77;;;1.00;;
24813;SDS011;12904;50.088;11.414;2023-09-19T07:39:16;1.60;;;0.88;;
24813;SDS011;12904;50.088;11.414;2023-09-19T07:41:42;0.95;;;0.80;;
24813;SDS011;12904;50.088;11.414;2023-09-19T07:44:08;1.75;;;0.80;;
24813;SDS011;12904;50.088;11.414;2023-09-19T07:46:35;1.30;;;0.80;;
24813;SDS011;12904;50.088;11.414;2023-09-19T07:49:01;0.70;;;0.70;;
24813;SDS011;12904;50.088;11.414;2023-09-19T07:51:26;2.00;;;0.90;;
24813;SDS011;12904;50.088;11.414;2023-09-19T07:53:52;1.75;;;1.00;;
24813;SDS011;12904;50.088;11.414;2023-09-19T07:56:20;2.85;;;1.00;;
24813;SDS011;12904;50.088;11.414;2023-09-19T07:58:45;1.40;;;0.90;;
24813;SDS011;12904;50.088;11.414;2023-09-19T08:01:11;1.48;;;0.90;;
24813;SDS011;12904;50.088;11.414;2023-09-19T08:03:39;1.38;;;1.05;;
24813;SDS011;12904;50.088;11.414;2023-09-19T08:06:08;3.47;;;0.90;;
24813;SDS011;12904;50.088;11.414;2023-09-19T08:08:35;1.45;;;0.60;;
24813;SDS011;12904;50.088;11.414;2023-09-19T08:11:02;2.42;;;0.90;;
24813;SDS011;12904;50.088;11.414;2023-09-19T08:13:38;1.13;;;0.82;;
24813;SDS011;12904;50.088;11.414;2023-09-19T08:16:14;3.33;;;1.00;;
24813;SDS011;12904;50.088;11.414;2023-09-19T08:18:41;1.25;;;1.00;;
24813;SDS011;12904;50.088;11.414;2023-09-19T08:21:07;2.67;;;0.95;;
24813;SDS011;12904;50.088;11.414;2023-09-19T08:23:35;2.20;;;0.77;;
24813;SDS011;12904;50.088;11.414;2023-09-19T08:26:04;2.95;;;0.90;;
24813;SDS011;12904;50.088;11.414;2023-09-19T08:28:35;0.80;;;0.70;;
24813;SDS011;12904;50.088;11.414;2023-09-19T08:31:04;1.08;;;0.65;;
24813;SDS011;12904;50.088;11.414;2023-09-19T08:33:35;1.17;;;0.60;;
24813;SDS011;12904;50.088;11.414;2023-09-19T08:36:02;0.98;;;0.70;;
24813;SDS011;12904;50.088;11.414;2023-09-19T08:38:31;1.67;;;0.80;;
24813;SDS011;12904;50.088;11.414;2023-09-19T08:40:59;2.67;;;0.80;;
24813;SDS011;12904;50.088;11.414;2023-09-19T08:43:25;1.08;;;0.80;;
24813;SDS011;12904;50.088;11.414;2023-09-19T08:46:25;0.80;;;0.80;;
24813;SDS011;12904;50.088;11.414;2023-09-19T08:48:45;1.15;;;0.82;;
24813;SDS011;12904;50.088;11.414;2023-09-19T08:54:24;1.45;;;0.80;;
24813;SDS011;12904;50.088;11.414;2023-09-19T08:56:53;1.00;;;0.82;;
24813;SDS011;12904;50.088;11.414;2023-09-19T08:59:22;2.88;;;0.90;;
24813;SDS011;12904;50.088;11.414;2023-09-19T09:01:52;1.65;;;0.75;;
24813;SDS011;12904;50.088;11.414;2023-09-19T09:04:19;2.70;;;0.98;;
24813;SDS011;12904;50.088;11.414;2023-09-19T09:06:47;0.85;;;0.70;;
24813;SDS011;12904;50.088;11.414;2023-09-19T09:09:16;1.58;;;0.80;;
24813;SDS011;12904;50.088;11.414;2023-09-19T09:11:42;2.05;;;0.80;;
24813;SDS011;12904;50.088;11.414;2023-09-19T09:14:08;2.72;;;0.60;;
24813;SDS011;12904;50.088;11.414;2023-09-19T09:16:34;1.95;;;1.27;;
24813;SDS011;12904;50.088;11.414;2023-09-19T09:19:00;1.52;;;0.70;;
24813;SDS011;12904;50.088;11.414;2023-09-19T09:21:26;1.38;;;0.75;;
24813;SDS011;12904;50.088;11.414;2023-09-19T09:23:53;1.30;;;0.70;;
24813;SDS011;12904;50.088;11.414;2023-09-19T09:26:40;2.33;;;0.85;;
24813;SDS011;12904;50.088;11.414;2023-09-19T09:29:07;2.05;;;0.60;;
24813;SDS011;12904;50.088;11.414;2023-09-19T09:31:33;1.45;;;0.60;;
24813;SDS011;12904;50.088;11.414;2023-09-19T09:33:58;0.70;;;0.65;;
24813;SDS011;12904;50.088;11.414;2023-09-19T09:36:37;1.35;;;0.60;;
24813;SDS011;12904;50.088;11.414;2023-09-19T09:39:06;1.20;;;0.70;;
24813;SDS011;12904;50.088;11.414;2023-09-19T09:41:43;0.50;;;0.50;;
24813;SDS011;12904;50.088;11.414;2023-09-19T09:44:15;0.52;;;0.50;;
24813;SDS011;12904;50.088;11.414;2023-09-19T09:46:46;0.73;;;0.60;;
24813;SDS011;12904;50.088;11.414;2023-09-19T09:49:25;1.88;;;0.70;;
24813;SDS011;12904;50.088;11.414;2023-09-19T09:52:05;2.92;;;0.70;;
24813;SDS011;12904;50.088;11.414;2023-09-19T09:55:00;2.55;;;0.70;;
24813;SDS011;12904;50.088;11.414;2023-09-19T09:57:30;1.60;;;0.60;;
24813;SDS011;12904;50.088;11.414;2023-09-19T09:59:58;3.10;;;0.70;;
24813;SDS011;12904;50.088;11.414;2023-09-19T10:02:37;0.80;;;0.50;;
24813;SDS011;12904;50.088;11.414;2023-09-19T10:07:47;2.15;;;0.63;;
24813;SDS011;12904;50.088;11.414;2023-09-19T10:10:29;1.05;;;0.68;;
24813;SDS011;12904;50.088;11.414;2023-09-19T10:13:05;1.67;;;0.82;;
24813;SDS011;12904;50.088;11.414;2023-09-19T10:15:33;1.40;;;0.60;;
24813;SDS011;12904;50.088;11.414;2023-09-19T10:18:04;2.60;;;0.65;;
24813;SDS011;12904;50.088;11.414;2023-09-19T10:20:31;1.25;;;0.70;;
24813;SDS011;12904;50.088;11.414;2023-09-19T10:23:00;1.58;;;0.70;;
24813;SDS011;12904;50.088;11.414;2023-09-19T10:25:28;0.65;;;0.60;;
24813;SDS011;12904;50.088;11.414;2023-09-19T10:27:55;1.50;;;0.70;;
24813;SDS011;12904;50.088;11.414;2023-09-19T10:30:31;1.92;;;0.60;;
24813;SDS011;12904;50.088;11.414;2023-09-19T10:33:02;1.00;;;0.70;;
24813;SDS011;12904;50.088;11.414;2023-09-19T10:35:29;1.15;;;0.60;;
24813;SDS011;12904;50.088;11.414;2023-09-19T10:37:57;2.08;;;0.85;;
24813;SDS011;12904;50.088;11.414;2023-09-19T10:40:28;2.33;;;0.70;;
24813;SDS011;12904;50.088;11.414;2023-09-19T10:43:01;1.92;;;0.70;;
24813;SDS011;12904;50.088;11.414;2023-09-19T10:45:34;1.17;;;0.70;;
24813;SDS011;12904;50.088;11.414;2023-09-19T10:48:01;2.15;;;0.90;;
24813;SDS011;12904;50.088;11.414;2023-09-19T10:50:41;1.15;;;0.70;;
24813;SDS011;12904;50.088;11.414;2023-09-19T10:53:10;2.25;;;0.90;;
24813;SDS011;12904;50.088;11.414;2023-09-19T10:55:38;2.55;;;0.80;;
24813;SDS011;12904;50.088;11.414;2023-09-19T10:58:05;1.73;;;0.70;;
24813;SDS011;12904;50.088;11.414;2023-09-19T11:00:53;2.25;;;1.00;;
24813;SDS011;12904;50.088;11.414;2023-09-19T11:03:21;1.63;;;0.90;;
24813;SDS011;12904;50.088;11.414;2023-09-19T11:06:08;1.55;;;0.70;;
24813;SDS011;12904;50.088;11.414;2023-09-19T11:14:15;1.00;;;0.80;;
24813;SDS011;12904;50.088;11.414;2023-09-19T11:17:12;1.58;;;0.63;;
24813;SDS011;12904;50.088;11.414;2023-09-19T11:30:41;1.98;;;0.63;;
24813;SDS011;12904;50.088;11.414;2023-09-19T11:36:08;2.30;;;0.77;;
24813;SDS011;12904;50.088;11.414;2023-09-19T11:43:45;1.77;;;0.80;;
24813;SDS011;12904;50.088;11.414;2023-09-19T11:46:15;1.05;;;0.70;;
24813;SDS011;12904;50.088;11.414;2023-09-19T11:48:47;4.10;;;0.70;;
24813;SDS011;12904;50.088;11.414;2023-09-19T11:51:15;1.95;;;0.98;;
24813;SDS011;12904;50.088;11.414;2023-09-19T11:53:47;1.38;;;0.70;;
24813;SDS011;12904;50.088;11.414;2023-09-19T11:56:15;1.45;;;0.70;;
24813;SDS011;12904;50.088;11.414;2023-09-19T11:58:42;2.50;;;0.98;;
24813;SDS011;12904;50.088;11.414;2023-09-19T12:01:11;1.33;;;0.68;;
24813;SDS011;12904;50.088;11.414;2023-09-19T12:03:41;1.07;;;0.87;;
24813;SDS011;12904;50.088;11.414;2023-09-19T12:06:12;1.75;;;0.80;;
24813;SDS011;12904;50.088;11.414;2023-09-19T12:08:40;1.45;;;0.70;;
24813;SDS011;12904;50.088;11.414;2023-09-19T12:11:11;0.80;;;0.80;;
24813;SDS011;12904;50.088;11.414;2023-09-19T12:13:44;1.67;;;0.80;;
24813;SDS011;12904;50.088;11.414;2023-09-19T12:16:11;1.05;;;0.70;;
24813;SDS011;12904;50.088;11.414;2023-09-19T12:18:40;1.85;;;0.77;;
24813;SDS011;12904;50.088;11.414;2023-09-19T12:21:08;3.33;;;0.73;;
24813;SDS011;12904;50.088;11.414;2023-09-19T12:23:56;1.83;;;0.90;;
24813;SDS011;12904;50.088;11.414;2023-09-19T12:26:43;1.20;;;0.70;;
24813;SDS011;12904;50.088;11.414;2023-09-19T12:29:16;1.20;;;0.80;;
24813;SDS011;12904;50.088;11.414;2023-09-19T12:31:52;1.08;;;0.70;;
24813;SDS011;12904;50.088;11.414;2023-09-19T12:34:29;1.33;;;0.80;;
24813;SDS011;12904;50.088;11.414;2023-09-19T12:37:09;2.28;;;0.85;;
24813;SDS011;12904;50.088;11.414;2023-09-19T12:39:46;1.63;;;0.80;;
24813;SDS011;12904;50.088;11.414;2023-09-19T12:42:20;1.15;;;0.90;;
24813;SDS011;12904;50.088;11.414;2023-09-19T12:44:54;1.95;;;0.80;;
24813;SDS011;12904;50.088;11.414;2023-09-19T12:47:22;0.90;;;0.80;;
24813;SDS011;12904;50.088;11.414;2023-09-19T12:52:37;2.45;;;0.93;;
24813;SDS011;12904;50.088;11.414;2023-09-19T12:55:26;6.22;;;0.90;;
24813;SDS011;12904;50.088;11.414;2023-09-19T12:57:56;4.97;;;1.30;;
24813;SDS011;12904;50.088;11.414;2023-09-19T13:00:31;5.00;;;1.08;;
24813;SDS011;12904;50.088;11.414;2023-09-19T13:08:25;13.57;;;1.50;;
24813;SDS011;12904;50.088;11.414;2023-09-19T13:11:07;1.35;;;0.90;;
24813;SDS011;12904;50.088;11.414;2023-09-19T13:16:04;4.75;;;1.77;;
24813;SDS011;12904;50.088;11.414;2023-09-19T13:18:43;4.40;;;0.95;;
24813;SDS011;12904;50.088;11.414;2023-09-19T13:21:10;26.45;;;1.58;;
24813;SDS011;12904;50.088;11.414;2023-09-19T13:23:47;35.20;;;1.73;;
24813;SDS011;12904;50.088;11.414;2023-09-19T13:26:16;2.00;;;1.10;;
24813;SDS011;12904;50.088;11.414;2023-09-19T13:28:42;1.48;;;0.80;;
24813;SDS011;12904;50.088;11.414;2023-09-19T13:31:09;3.05;;;0.80;;
24813;SDS011;12904;50.088;11.414;2023-09-19T13:33:42;2.67;;;0.80;;
24813;SDS011;12904;50.088;11.414;2023-09-19T13:36:10;8.93;;;1.00;;
24813;SDS011;12904;50.088;11.414;2023-09-19T13:38:37;1.75;;;0.90;;
24813;SDS011;12904;50.088;11.414;2023-09-19T13:41:02;6.25;;;1.08;;
24813;SDS011;12904;50.088;11.414;2023-09-19T13:43:28;5.97;;;1.10;;
24813;SDS011;12904;50.088;11.414;2023-09-19T13:45:54;3.53;;;0.90;;
24813;SDS011;12904;50.088;11.414;2023-09-19T13:48:19;45.95;;;2.25;;
24813;SDS011;12904;50.088;11.414;2023-09-19T13:50:47;1.10;;;0.80;;
24813;SDS011;12904;50.088;11.414;2023-09-19T13:53:14;2.28;;;0.80;;
24813;SDS011;12904;50.088;11.414;2023-09-19T13:55:39;1.55;;;0.70;;
24813;SDS011;12904;50.088;11.414;2023-09-19T13:58:06;4.93;;;0.80;;
24813;SDS011;12904;50.088;11.414;2023-09-19T14:00:32;1.60;;;0.90;;
24813;SDS011;12904;50.088;11.414;2023-09-19T14:03:00;1.27;;;0.85;;
24813;SDS011;12904;50.088;11.414;2023-09-19T14:05:26;2.58;;;1.20;;
24813;SDS011;12904;50.088;11.414;2023-09-19T14:07:53;2.65;;;0.90;;
24813;SDS011;12904;50.088;11.414;2023-09-19T14:10:21;3.97;;;1.00;;
24813;SDS011;12904;50.088;11.414;2023-09-19T14:12:46;6.53;;;1.00;;
24813;SDS011;12904;50.088;11.414;2023-09-19T14:15:13;5.10;;;1.40;;
24813;SDS011;12904;50.088;11.414;2023-09-19T14:17:39;1.90;;;0.90;;
24813;SDS011;12904;50.088;11.414;2023-09-19T14:20:07;1.92;;;0.90;;
24813;SDS011;12904;50.088;11.414;2023-09-19T14:22:35;28.30;;;1.80;;
24813;SDS011;12904;50.088;11.414;2023-09-19T14:25:01;2.53;;;0.90;;
24813;SDS011;12904;50.088;11.414;2023-09-19T14:27:29;14.90;;;1.40;;
24813;SDS011;12904;50.088;11.414;2023-09-19T14:29:54;3.08;;;1.00;;
24813;SDS011;12904;50.088;11.414;2023-09-19T14:32:21;1.85;;;0.90;;
24813;SDS011;12904;50.088;11.414;2023-09-19T14:34:47;1.80;;;0.80;;
24813;SDS011;12904;50.088;11.414;2023-09-19T14:37:14;2.80;;;0.80;;
24813;SDS011;12904;50.088;11.414;2023-09-19T14:39:41;1.85;;;0.90;;
24813;SDS011;12904;50.088;11.414;2023-09-19T14:42:10;1.92;;;0.90;;
24813;SDS011;12904;50.088;11.414;2023-09-19T14:44:36;2.90;;;0.90;;
24813;SDS011;12904;50.088;11.414;2023-09-19T14:47:05;1.70;;;0.85;;
24813;SDS011;12904;50.088;11.414;2023-09-19T14:49:34;1.98;;;0.90;;
24813;SDS011;12904;50.088;11.414;2023-09-19T14:52:04;0.90;;;0.75;;
24813;SDS011;12904;50.088;11.414;2023-09-19T14:54:32;1.60;;;0.93;;
24813;SDS011;12904;50.088;11.414;2023-09-19T14:56:58;1.73;;;1.10;;
24813;SDS011;12904;50.088;11.414;2023-09-19T14:59:33;1.00;;;0.70;;
24813;SDS011;12904;50.088;11.414;2023-09-19T15:02:06;2.47;;;0.77;;
24813;SDS011;12904;50.088;11.414;2023-09-19T15:04:32;1.70;;;0.70;;
24813;SDS011;12904;50.088;11.414;2023-09-19T15:06:58;2.05;;;0.90;;
24813;SDS011;12904;50.088;11.414;2023-09-19T15:09:24;1.20;;;0.82;;
24813;SDS011;12904;50.088;11.414;2023-09-19T15:11:53;1.77;;;0.80;;
24813;SDS011;12904;50.088;11.414;2023-09-19T15:14:20;1.77;;;0.80;;
24813;SDS011;12904;50.088;11.414;2023-09-19T15:16:46;0.88;;;0.65;;
24813;SDS011;12904;50.088;11.414;2023-09-19T15:19:12;2.33;;;0.80;;
24813;SDS011;12904;50.088;11.414;2023-09-19T15:21:38;1.73;;;0.90;;
24813;SDS011;12904;50.088;11.414;2023-09-19T15:24:05;2.60;;;1.00;;
24813;SDS011;12904;50.088;11.414;2023-09-19T15:26:35;1.73;;;0.75;;
24813;SDS011;12904;50.088;11.414;2023-09-19T15:29:04;1.50;;;0.77;;
24813;SDS011;12904;50.088;11.414;2023-09-19T15:31:31;1.00;;;0.68;;
24813;SDS011;12904;50.088;11.414;2023-09-19T15:33:57;1.75;;;0.70;;
24813;SDS011;12904;50.088;11.414;2023-09-19T15:36:22;2.30;;;0.90;;
24813;SDS011;12904;50.088;11.414;2023-09-19T15:41:26;1.92;;;1.10;;
24813;SDS011;12904;50.088;11.414;2023-09-19T15:43:55;1.10;;;0.77;;
24813;SDS011;12904;50.088;11.414;2023-09-19T15:46:22;2.10;;;0.90;;
24813;SDS011;12904;50.088;11.414;2023-09-19T15:48:47;1.77;;;0.80;;
24813;SDS011;12904;50.088;11.414;2023-09-19T15:51:13;1.98;;;0.80;;